sensor_id;sensor_type;location;lat;lon;timestamp;P1;durP1;ratioP1;P2;durP2;ratioP2
9783;SDS011;4931;44.874;-1.092;2023-01-09T00:01:38;30.05;;;4.55;;
9783;SDS011;4931;44.874;-1.092;2023-01-09T00:04:06;36.28;;;4.95;;
9783;SDS011;4931;44.874;-1.092;2023-01-09T00:06:32;30.15;;;4.45;;
9783;SDS011;4931;44.874;-1.092;2023-01-09T00:08:57;32.90;;;4.43;;
9783;SDS011;4931;44.874;-1.092;2023-01-09T00:11:23;38.08;;;4.55;;
9783;SDS011;4931;44.874;-1.092;2023-01-09T00:13:48;39.97;;;5.32;;
9783;SDS011;4931;44.874;-1.092;2023-01-09T00:16:14;38.85;;;5.30;;
9783;SDS011;4931;44.874;-1.092;2023-01-09T00:18:40;37.50;;;5.20;;
9783;SDS011;4931;44.874;-1.092;2023-01-09T00:21:06;38.45;;;4.80;;
9783;SDS011;4931;44.874;-1.092;2023-01-09T00:23:34;42.05;;;4.53;;
9783;SDS011;4931;44.874;-1.092;2023-01-09T00:26:01;43.15;;;5.55;;
9783;SDS011;4931;44.874;-1.092;2023-01-09T00:28:28;37.65;;;4.28;;
9783;SDS011;4931;44.874;-1.092;2023-01-09T00:30:57;39.90;;;4.60;;
9783;SDS011;4931;44.874;-1.092;2023-01-09T00:33:25;31.15;;;4.03;;
9783;SDS011;4931;44.874;-1.092;2023-01-09T00:36:00;29.17;;;4.60;;
9783;SDS011;4931;44.874;-1.092;2023-01-09T00:38:25;38.42;;;4.32;;
9783;SDS011;4931;44.874;-1.092;2023-01-09T00:40:51;35.80;;;4.28;;
9783;SDS011;4931;44.874;-1.092;2023-01-09T00:43:18;32.47;;;4.65;;
9783;SDS011;4931;44.874;-1.092;2023-01-09T00:45:44;37.65;;;4.65;;
9783;SDS011;4931;44.874;-1.092;2023-01-09T00:48:15;21.60;;;3.90;;
9783;SDS011;4931;44.874;-1.092;2023-01-09T00:50:49;34.33;;;4.63;;
9783;SDS011;4931;44.874;-1.092;2023-01-09T00:53:16;27.40;;;3.60;;
9783;SDS011;4931;44.874;-1.092;2023-01-09T00:55:44;27.73;;;4.07;;
9783;SDS011;4931;44.874;-1.092;2023-01-09T00:58:09;33.88;;;5.15;;
9783;SDS011;4931;44.874;-1.092;2023-01-09T01:00:35;32.92;;;4.53;;
9783;SDS011;4931;44.874;-1.092;2023-01-09T01:03:00;31.55;;;4.00;;
9783;SDS011;4931;44.874;-1.092;2023-01-09T01:05:26;32.35;;;4.18;;
9783;SDS011;4931;44.874;-1.092;2023-01-09T01:08:11;29.75;;;3.28;;
9783;SDS011;4931;44.874;-1.092;2023-01-09T01:10:38;34.10;;;4.18;;
9783;SDS011;4931;44.874;-1.092;2023-01-09T01:13:04;38.28;;;4.63;;
9783;SDS011;4931;44.874;-1.092;2023-01-09T01:15:29;41.55;;;5.00;;
9783;SDS011;4931;44.874;-1.092;2023-01-09T01:17:56;33.60;;;4.65;;
9783;SDS011;4931;44.874;-1.092;2023-01-09T01:20:22;34.40;;;4.47;;
9783;SDS011;4931;44.874;-1.092;2023-01-09T01:22:47;31.52;;;4.55;;
9783;SDS011;4931;44.874;-1.092;2023-01-09T01:25:14;38.45;;;5.00;;
9783;SDS011;4931;44.874;-1.092;2023-01-09T01:27:41;35.38;;;4.95;;
9783;SDS011;4931;44.874;-1.092;2023-01-09T01:30:09;40.92;;;5.40;;
9783;SDS011;4931;44.874;-1.092;2023-01-09T01:32:36;43.67;;;4.97;;
9783;SDS011;4931;44.874;-1.092;2023-01-09T01:35:02;39.20;;;4.80;;
9783;SDS011;4931;44.874;-1.092;2023-01-09T01:37:28;37.30;;;4.38;;
9783;SDS011;4931;44.874;-1.092;2023-01-09T01:39:53;33.97;;;5.10;;
9783;SDS011;4931;44.874;-1.092;2023-01-09T01:42:19;36.88;;;5.57;;
9783;SDS011;4931;44.874;-1.092;2023-01-09T01:47:45;35.33;;;5.32;;
9783;SDS011;4931;44.874;-1.092;2023-01-09T01:50:18;33.22;;;4.20;;
9783;SDS011;4931;44.874;-1.092;2023-01-09T01:52:58;32.78;;;4.88;;
9783;SDS011;4931;44.874;-1.092;2023-01-09T01:55:26;34.33;;;4.72;;
9783;SDS011;4931;44.874;-1.092;2023-01-09T01:57:53;33.78;;;4.15;;
9783;SDS011;4931;44.874;-1.092;2023-01-09T02:00:24;37.70;;;4.47;;
9783;SDS011;4931;44.874;-1.092;2023-01-09T02:02:55;31.60;;;5.13;;
9783;SDS011;4931;44.874;-1.092;2023-01-09T02:05:21;31.08;;;3.58;;
9783;SDS011;4931;44.874;-1.092;2023-01-09T02:07:47;27.98;;;3.95;;
9783;SDS011;4931;44.874;-1.092;2023-01-09T02:10:12;29.80;;;4.38;;
9783;SDS011;4931;44.874;-1.092;2023-01-09T02:12:38;30.67;;;4.28;;
9783;SDS011;4931;44.874;-1.092;2023-01-09T02:15:08;31.40;;;4.20;;
9783;SDS011;4931;44.874;-1.092;2023-01-09T02:26:50;44.58;;;5.75;;
9783;SDS011;4931;44.874;-1.092;2023-01-09T02:37:21;36.05;;;5.07;;
9783;SDS011;4931;44.874;-1.092;2023-01-09T02:40:15;45.15;;;5.68;;
9783;SDS011;4931;44.874;-1.092;2023-01-09T02:42:43;43.72;;;5.28;;
9783;SDS011;4931;44.874;-1.092;2023-01-09T02:45:09;29.42;;;4.88;;
9783;SDS011;4931;44.874;-1.092;2023-01-09T02:50:06;37.22;;;5.03;;
9783;SDS011;4931;44.874;-1.092;2023-01-09T03:00:52;13.55;;;2.10;;
9783;SDS011;4931;44.874;-1.092;2023-01-09T03:03:36;16.55;;;2.40;;
9783;SDS011;4931;44.874;-1.092;2023-01-09T03:09:12;20.90;;;2.97;;
9783;SDS011;4931;44.874;-1.092;2023-01-09T03:11:43;32.28;;;3.80;;
9783;SDS011;4931;44.874;-1.092;2023-01-09T03:14:15;35.05;;;4.18;;
9783;SDS011;4931;44.874;-1.092;2023-01-09T03:16:45;35.45;;;3.92;;
9783;SDS011;4931;44.874;-1.092;2023-01-09T03:19:15;29.98;;;4.13;;
9783;SDS011;4931;44.874;-1.092;2023-01-09T03:24:10;28.73;;;3.92;;
9783;SDS011;4931;44.874;-1.092;2023-01-09T03:26:36;33.35;;;5.05;;
9783;SDS011;4931;44.874;-1.092;2023-01-09T03:29:01;38.25;;;5.28;;
9783;SDS011;4931;44.874;-1.092;2023-01-09T03:31:27;28.35;;;4.00;;
9783;SDS011;4931;44.874;-1.092;2023-01-09T03:33:53;31.08;;;4.20;;
9783;SDS011;4931;44.874;-1.092;2023-01-09T03:36:19;33.67;;;4.13;;
9783;SDS011;4931;44.874;-1.092;2023-01-09T03:38:45;37.80;;;4.72;;
9783;SDS011;4931;44.874;-1.092;2023-01-09T03:41:11;44.78;;;5.22;;
9783;SDS011;4931;44.874;-1.092;2023-01-09T03:43:36;35.80;;;4.30;;
9783;SDS011;4931;44.874;-1.092;2023-01-09T03:46:02;19.75;;;2.63;;
9783;SDS011;4931;44.874;-1.092;2023-01-09T03:48:28;11.75;;;1.45;;
9783;SDS011;4931;44.874;-1.092;2023-01-09T03:50:54;9.82;;;1.30;;
9783;SDS011;4931;44.874;-1.092;2023-01-09T03:53:21;11.48;;;1.48;;
9783;SDS011;4931;44.874;-1.092;2023-01-09T03:55:48;12.80;;;1.50;;
9783;SDS011;4931;44.874;-1.092;2023-01-09T03:58:16;12.95;;;1.40;;
9783;SDS011;4931;44.874;-1.092;2023-01-09T04:00:43;17.52;;;2.05;;
9783;SDS011;4931;44.874;-1.092;2023-01-09T04:03:17;14.93;;;2.28;;
9783;SDS011;4931;44.874;-1.092;2023-01-09T04:05:45;10.48;;;1.73;;
9783;SDS011;4931;44.874;-1.092;2023-01-09T04:08:12;16.55;;;2.10;;
9783;SDS011;4931;44.874;-1.092;2023-01-09T04:10:38;18.50;;;2.33;;
9783;SDS011;4931;44.874;-1.092;2023-01-09T04:13:03;15.35;;;2.60;;
9783;SDS011;4931;44.874;-1.092;2023-01-09T04:15:29;24.38;;;2.38;;
9783;SDS011;4931;44.874;-1.092;2023-01-09T04:17:54;25.10;;;3.05;;
9783;SDS011;4931;44.874;-1.092;2023-01-09T04:20:20;26.30;;;3.25;;
9783;SDS011;4931;44.874;-1.092;2023-01-09T04:22:45;33.72;;;4.05;;
9783;SDS011;4931;44.874;-1.092;2023-01-09T04:25:11;22.52;;;3.03;;
9783;SDS011;4931;44.874;-1.092;2023-01-09T04:27:36;28.08;;;3.35;;
9783;SDS011;4931;44.874;-1.092;2023-01-09T04:30:02;25.30;;;3.05;;
9783;SDS011;4931;44.874;-1.092;2023-01-09T04:32:28;28.15;;;4.13;;
9783;SDS011;4931;44.874;-1.092;2023-01-09T04:34:53;30.08;;;4.40;;
9783;SDS011;4931;44.874;-1.092;2023-01-09T04:37:19;33.25;;;3.67;;
9783;SDS011;4931;44.874;-1.092;2023-01-09T04:39:45;37.33;;;5.03;;
9783;SDS011;4931;44.874;-1.092;2023-01-09T04:42:11;41.38;;;5.28;;
9783;SDS011;4931;44.874;-1.092;2023-01-09T04:44:37;38.10;;;5.15;;
9783;SDS011;4931;44.874;-1.092;2023-01-09T04:47:03;37.30;;;4.60;;
9783;SDS011;4931;44.874;-1.092;2023-01-09T04:49:29;35.97;;;3.88;;
9783;SDS011;4931;44.874;-1.092;2023-01-09T04:51:54;23.65;;;2.88;;
9783;SDS011;4931;44.874;-1.092;2023-01-09T04:54:20;16.80;;;2.40;;
9783;SDS011;4931;44.874;-1.092;2023-01-09T04:56:46;26.58;;;2.85;;
9783;SDS011;4931;44.874;-1.092;2023-01-09T04:59:12;19.65;;;2.95;;
9783;SDS011;4931;44.874;-1.092;2023-01-09T05:01:38;27.90;;;3.60;;
9783;SDS011;4931;44.874;-1.092;2023-01-09T05:04:03;22.35;;;3.30;;
9783;SDS011;4931;44.874;-1.092;2023-01-09T05:06:29;28.85;;;2.75;;
9783;SDS011;4931;44.874;-1.092;2023-01-09T05:08:55;34.83;;;4.03;;
9783;SDS011;4931;44.874;-1.092;2023-01-09T05:11:21;30.25;;;4.35;;
9783;SDS011;4931;44.874;-1.092;2023-01-09T05:13:47;26.50;;;3.10;;
9783;SDS011;4931;44.874;-1.092;2023-01-09T05:16:13;21.92;;;3.20;;
9783;SDS011;4931;44.874;-1.092;2023-01-09T05:18:38;24.83;;;2.92;;
9783;SDS011;4931;44.874;-1.092;2023-01-09T05:21:04;31.20;;;3.80;;
9783;SDS011;4931;44.874;-1.092;2023-01-09T05:23:30;23.10;;;3.00;;
9783;SDS011;4931;44.874;-1.092;2023-01-09T05:25:55;28.08;;;3.47;;
9783;SDS011;4931;44.874;-1.092;2023-01-09T05:28:21;30.95;;;4.00;;
9783;SDS011;4931;44.874;-1.092;2023-01-09T05:30:46;26.20;;;3.75;;
9783;SDS011;4931;44.874;-1.092;2023-01-09T05:33:12;29.60;;;4.43;;
9783;SDS011;4931;44.874;-1.092;2023-01-09T05:35:38;32.65;;;3.75;;
9783;SDS011;4931;44.874;-1.092;2023-01-09T05:38:03;29.30;;;4.43;;
9783;SDS011;4931;44.874;-1.092;2023-01-09T05:40:29;28.83;;;3.15;;
9783;SDS011;4931;44.874;-1.092;2023-01-09T05:42:54;24.25;;;3.58;;
9783;SDS011;4931;44.874;-1.092;2023-01-09T05:45:20;26.20;;;4.40;;
9783;SDS011;4931;44.874;-1.092;2023-01-09T05:47:45;27.45;;;3.90;;
9783;SDS011;4931;44.874;-1.092;2023-01-09T05:50:11;34.15;;;4.05;;
9783;SDS011;4931;44.874;-1.092;2023-01-09T05:52:37;32.15;;;4.25;;
9783;SDS011;4931;44.874;-1.092;2023-01-09T05:55:03;38.67;;;4.65;;
9783;SDS011;4931;44.874;-1.092;2023-01-09T05:57:29;27.75;;;4.18;;
9783;SDS011;4931;44.874;-1.092;2023-01-09T05:59:55;28.30;;;4.00;;
9783;SDS011;4931;44.874;-1.092;2023-01-09T06:02:20;44.28;;;5.50;;
9783;SDS011;4931;44.874;-1.092;2023-01-09T06:04:45;35.33;;;4.80;;
9783;SDS011;4931;44.874;-1.092;2023-01-09T06:07:11;39.80;;;4.60;;
9783;SDS011;4931;44.874;-1.092;2023-01-09T06:09:36;34.08;;;4.22;;
9783;SDS011;4931;44.874;-1.092;2023-01-09T06:12:02;30.70;;;3.78;;
9783;SDS011;4931;44.874;-1.092;2023-01-09T06:14:28;34.50;;;4.82;;
9783;SDS011;4931;44.874;-1.092;2023-01-09T06:16:53;34.13;;;4.22;;
9783;SDS011;4931;44.874;-1.092;2023-01-09T06:19:19;33.03;;;4.18;;
9783;SDS011;4931;44.874;-1.092;2023-01-09T06:21:44;33.63;;;4.78;;
9783;SDS011;4931;44.874;-1.092;2023-01-09T06:24:10;41.65;;;5.05;;
9783;SDS011;4931;44.874;-1.092;2023-01-09T06:26:35;33.92;;;4.35;;
9783;SDS011;4931;44.874;-1.092;2023-01-09T06:29:01;40.10;;;4.90;;
9783;SDS011;4931;44.874;-1.092;2023-01-09T06:31:26;37.10;;;4.35;;
9783;SDS011;4931;44.874;-1.092;2023-01-09T06:33:52;29.45;;;4.22;;
9783;SDS011;4931;44.874;-1.092;2023-01-09T06:36:18;26.95;;;3.42;;
9783;SDS011;4931;44.874;-1.092;2023-01-09T06:38:43;26.38;;;3.78;;
9783;SDS011;4931;44.874;-1.092;2023-01-09T06:41:09;29.48;;;4.22;;
9783;SDS011;4931;44.874;-1.092;2023-01-09T06:43:34;26.08;;;3.97;;
9783;SDS011;4931;44.874;-1.092;2023-01-09T06:46:00;33.10;;;4.50;;
9783;SDS011;4931;44.874;-1.092;2023-01-09T06:48:25;28.60;;;4.57;;
9783;SDS011;4931;44.874;-1.092;2023-01-09T06:50:51;31.98;;;4.07;;
9783;SDS011;4931;44.874;-1.092;2023-01-09T06:53:18;30.45;;;4.55;;
9783;SDS011;4931;44.874;-1.092;2023-01-09T06:55:44;19.77;;;3.72;;
9783;SDS011;4931;44.874;-1.092;2023-01-09T06:58:10;26.73;;;3.88;;
9783;SDS011;4931;44.874;-1.092;2023-01-09T07:00:35;23.50;;;4.32;;
9783;SDS011;4931;44.874;-1.092;2023-01-09T07:03:01;41.42;;;4.95;;
9783;SDS011;4931;44.874;-1.092;2023-01-09T07:05:27;34.00;;;4.10;;
9783;SDS011;4931;44.874;-1.092;2023-01-09T07:07:53;20.35;;;3.00;;
9783;SDS011;4931;44.874;-1.092;2023-01-09T07:10:19;23.92;;;3.58;;
9783;SDS011;4931;44.874;-1.092;2023-01-09T07:12:44;18.55;;;3.28;;
9783;SDS011;4931;44.874;-1.092;2023-01-09T07:15:10;21.63;;;3.00;;
9783;SDS011;4931;44.874;-1.092;2023-01-09T07:17:36;19.77;;;2.92;;
9783;SDS011;4931;44.874;-1.092;2023-01-09T07:20:02;23.20;;;2.80;;
9783;SDS011;4931;44.874;-1.092;2023-01-09T07:22:28;24.80;;;3.50;;
9783;SDS011;4931;44.874;-1.092;2023-01-09T07:24:53;31.13;;;3.50;;
9783;SDS011;4931;44.874;-1.092;2023-01-09T07:27:19;28.80;;;3.75;;
9783;SDS011;4931;44.874;-1.092;2023-01-09T07:29:45;32.63;;;3.70;;
9783;SDS011;4931;44.874;-1.092;2023-01-09T07:32:11;28.65;;;3.50;;
9783;SDS011;4931;44.874;-1.092;2023-01-09T07:34:36;30.80;;;3.67;;
9783;SDS011;4931;44.874;-1.092;2023-01-09T07:37:01;37.20;;;4.15;;
9783;SDS011;4931;44.874;-1.092;2023-01-09T07:39:27;30.85;;;3.70;;
9783;SDS011;4931;44.874;-1.092;2023-01-09T07:41:53;30.67;;;3.88;;
9783;SDS011;4931;44.874;-1.092;2023-01-09T07:44:18;42.85;;;4.47;;
9783;SDS011;4931;44.874;-1.092;2023-01-09T07:46:43;31.15;;;4.13;;
9783;SDS011;4931;44.874;-1.092;2023-01-09T07:49:09;33.63;;;5.68;;
9783;SDS011;4931;44.874;-1.092;2023-01-09T07:51:34;35.75;;;3.80;;
9783;SDS011;4931;44.874;-1.092;2023-01-09T07:54:03;44.88;;;4.07;;
9783;SDS011;4931;44.874;-1.092;2023-01-09T07:56:28;37.95;;;4.57;;
9783;SDS011;4931;44.874;-1.092;2023-01-09T07:58:54;30.23;;;4.75;;
9783;SDS011;4931;44.874;-1.092;2023-01-09T08:01:19;30.95;;;3.95;;
9783;SDS011;4931;44.874;-1.092;2023-01-09T08:03:44;30.95;;;3.75;;
9783;SDS011;4931;44.874;-1.092;2023-01-09T08:06:10;29.95;;;3.47;;
9783;SDS011;4931;44.874;-1.092;2023-01-09T08:08:35;34.35;;;4.32;;
9783;SDS011;4931;44.874;-1.092;2023-01-09T08:11:01;31.67;;;4.47;;
9783;SDS011;4931;44.874;-1.092;2023-01-09T08:13:26;29.60;;;3.90;;
9783;SDS011;4931;44.874;-1.092;2023-01-09T08:15:52;35.38;;;4.30;;
9783;SDS011;4931;44.874;-1.092;2023-01-09T08:18:17;32.28;;;3.42;;
9783;SDS011;4931;44.874;-1.092;2023-01-09T08:20:43;29.10;;;3.53;;
9783;SDS011;4931;44.874;-1.092;2023-01-09T08:23:08;24.70;;;3.53;;
9783;SDS011;4931;44.874;-1.092;2023-01-09T08:25:34;23.15;;;3.67;;
9783;SDS011;4931;44.874;-1.092;2023-01-09T08:27:59;30.23;;;3.67;;
9783;SDS011;4931;44.874;-1.092;2023-01-09T08:30:25;17.95;;;2.63;;
9783;SDS011;4931;44.874;-1.092;2023-01-09T08:32:51;21.08;;;2.40;;
9783;SDS011;4931;44.874;-1.092;2023-01-09T08:35:18;22.08;;;2.65;;
9783;SDS011;4931;44.874;-1.092;2023-01-09T08:37:44;26.52;;;3.45;;
9783;SDS011;4931;44.874;-1.092;2023-01-09T08:40:11;31.70;;;3.67;;
9783;SDS011;4931;44.874;-1.092;2023-01-09T08:42:38;32.28;;;3.97;;
9783;SDS011;4931;44.874;-1.092;2023-01-09T08:45:23;31.10;;;4.10;;
9783;SDS011;4931;44.874;-1.092;2023-01-09T08:48:07;35.33;;;4.20;;
9783;SDS011;4931;44.874;-1.092;2023-01-09T08:50:32;38.10;;;4.63;;
9783;SDS011;4931;44.874;-1.092;2023-01-09T08:52:58;40.17;;;4.60;;
9783;SDS011;4931;44.874;-1.092;2023-01-09T08:55:24;39.75;;;4.45;;
9783;SDS011;4931;44.874;-1.092;2023-01-09T08:57:50;33.17;;;4.68;;
9783;SDS011;4931;44.874;-1.092;2023-01-09T09:00:17;38.97;;;4.40;;
9783;SDS011;4931;44.874;-1.092;2023-01-09T09:02:43;32.88;;;4.25;;
9783;SDS011;4931;44.874;-1.092;2023-01-09T09:05:09;42.55;;;4.68;;
9783;SDS011;4931;44.874;-1.092;2023-01-09T09:07:35;32.25;;;4.75;;
9783;SDS011;4931;44.874;-1.092;2023-01-09T09:10:00;43.78;;;4.72;;
9783;SDS011;4931;44.874;-1.092;2023-01-09T09:12:26;39.78;;;5.00;;
9783;SDS011;4931;44.874;-1.092;2023-01-09T09:14:52;35.33;;;4.85;;
9783;SDS011;4931;44.874;-1.092;2023-01-09T09:17:36;46.42;;;6.22;;
9783;SDS011;4931;44.874;-1.092;2023-01-09T09:20:02;38.25;;;5.07;;
9783;SDS011;4931;44.874;-1.092;2023-01-09T09:22:28;44.17;;;5.55;;
9783;SDS011;4931;44.874;-1.092;2023-01-09T09:24:54;35.28;;;4.85;;
9783;SDS011;4931;44.874;-1.092;2023-01-09T09:27:20;35.42;;;4.28;;
9783;SDS011;4931;44.874;-1.092;2023-01-09T09:29:46;35.65;;;3.80;;
9783;SDS011;4931;44.874;-1.092;2023-01-09T09:32:11;28.83;;;4.18;;
9783;SDS011;4931;44.874;-1.092;2023-01-09T09:34:36;35.13;;;5.18;;
9783;SDS011;4931;44.874;-1.092;2023-01-09T09:37:02;33.35;;;4.07;;
9783;SDS011;4931;44.874;-1.092;2023-01-09T09:39:27;36.72;;;4.30;;
9783;SDS011;4931;44.874;-1.092;2023-01-09T09:42:06;29.58;;;4.32;;
9783;SDS011;4931;44.874;-1.092;2023-01-09T09:47:31;27.02;;;4.50;;
9783;SDS011;4931;44.874;-1.092;2023-01-09T09:55:43;31.07;;;3.00;;
9783;SDS011;4931;44.874;-1.092;2023-01-09T10:01:40;27.92;;;3.00;;
9783;SDS011;4931;44.874;-1.092;2023-01-09T10:04:14;27.92;;;3.72;;
9783;SDS011;4931;44.874;-1.092;2023-01-09T10:06:43;33.20;;;3.88;;
9783;SDS011;4931;44.874;-1.092;2023-01-09T10:09:12;32.45;;;4.68;;
9783;SDS011;4931;44.874;-1.092;2023-01-09T10:14:18;35.83;;;5.93;;
9783;SDS011;4931;44.874;-1.092;2023-01-09T10:21:57;30.45;;;3.72;;
9783;SDS011;4931;44.874;-1.092;2023-01-09T10:27:11;36.15;;;3.83;;
9783;SDS011;4931;44.874;-1.092;2023-01-09T10:29:49;30.45;;;3.80;;
9783;SDS011;4931;44.874;-1.092;2023-01-09T10:38:09;22.33;;;3.33;;
9783;SDS011;4931;44.874;-1.092;2023-01-09T10:40:40;28.67;;;3.75;;
9783;SDS011;4931;44.874;-1.092;2023-01-09T10:50:55;27.20;;;4.20;;
9783;SDS011;4931;44.874;-1.092;2023-01-09T10:53:22;32.47;;;4.25;;
9783;SDS011;4931;44.874;-1.092;2023-01-09T10:55:55;29.42;;;3.78;;
9783;SDS011;4931;44.874;-1.092;2023-01-09T10:58:25;36.92;;;5.28;;
9783;SDS011;4931;44.874;-1.092;2023-01-09T11:00:51;29.90;;;4.13;;
9783;SDS011;4931;44.874;-1.092;2023-01-09T11:03:18;36.05;;;5.20;;
9783;SDS011;4931;44.874;-1.092;2023-01-09T11:05:58;42.58;;;4.90;;
9783;SDS011;4931;44.874;-1.092;2023-01-09T11:08:35;34.20;;;4.30;;
9783;SDS011;4931;44.874;-1.092;2023-01-09T11:11:06;33.70;;;4.32;;
9783;SDS011;4931;44.874;-1.092;2023-01-09T11:13:33;37.08;;;4.93;;
9783;SDS011;4931;44.874;-1.092;2023-01-09T11:23:55;31.48;;;4.00;;
9783;SDS011;4931;44.874;-1.092;2023-01-09T11:26:24;24.45;;;3.53;;
9783;SDS011;4931;44.874;-1.092;2023-01-09T11:31:50;30.13;;;3.92;;
9783;SDS011;4931;44.874;-1.092;2023-01-09T11:34:19;27.48;;;4.13;;
9783;SDS011;4931;44.874;-1.092;2023-01-09T11:36:47;39.40;;;4.30;;
9783;SDS011;4931;44.874;-1.092;2023-01-09T11:39:26;28.90;;;4.32;;
9783;SDS011;4931;44.874;-1.092;2023-01-09T11:41:56;32.05;;;4.22;;
9783;SDS011;4931;44.874;-1.092;2023-01-09T11:44:24;28.30;;;4.25;;
9783;SDS011;4931;44.874;-1.092;2023-01-09T11:46:51;23.83;;;3.67;;
9783;SDS011;4931;44.874;-1.092;2023-01-09T11:51:43;31.42;;;3.55;;
9783;SDS011;4931;44.874;-1.092;2023-01-09T11:54:27;35.45;;;3.85;;
9783;SDS011;4931;44.874;-1.092;2023-01-09T11:56:56;31.88;;;4.32;;
9783;SDS011;4931;44.874;-1.092;2023-01-09T11:59:26;22.95;;;3.75;;
9783;SDS011;4931;44.874;-1.092;2023-01-09T12:04:40;28.23;;;3.67;;
9783;SDS011;4931;44.874;-1.092;2023-01-09T12:26:14;29.45;;;4.03;;
9783;SDS011;4931;44.874;-1.092;2023-01-09T12:40:38;27.83;;;4.57;;
9783;SDS011;4931;44.874;-1.092;2023-01-09T12:57:20;36.20;;;4.60;;
9783;SDS011;4931;44.874;-1.092;2023-01-09T12:59:49;26.92;;;3.95;;
9783;SDS011;4931;44.874;-1.092;2023-01-09T13:02:28;32.25;;;4.50;;
9783;SDS011;4931;44.874;-1.092;2023-01-09T13:10:47;33.47;;;4.13;;
9783;SDS011;4931;44.874;-1.092;2023-01-09T13:13:19;38.83;;;4.82;;
9783;SDS011;4931;44.874;-1.092;2023-01-09T13:15:53;33.50;;;5.03;;
9783;SDS011;4931;44.874;-1.092;2023-01-09T13:21:12;33.38;;;4.95;;
9783;SDS011;4931;44.874;-1.092;2023-01-09T13:26:28;41.10;;;5.10;;
9783;SDS011;4931;44.874;-1.092;2023-01-09T13:29:07;35.63;;;4.40;;
9783;SDS011;4931;44.874;-1.092;2023-01-09T13:34:36;28.02;;;4.68;;
9783;SDS011;4931;44.874;-1.092;2023-01-09T13:37:03;31.45;;;4.20;;
9783;SDS011;4931;44.874;-1.092;2023-01-09T13:39:30;25.92;;;4.35;;
9783;SDS011;4931;44.874;-1.092;2023-01-09T13:42:04;29.70;;;4.25;;
9783;SDS011;4931;44.874;-1.092;2023-01-09T13:44:51;27.85;;;4.30;;
9783;SDS011;4931;44.874;-1.092;2023-01-09T13:47:26;31.50;;;4.47;;
9783;SDS011;4931;44.874;-1.092;2023-01-09T13:52:40;31.17;;;4.85;;
9783;SDS011;4931;44.874;-1.092;2023-01-09T13:57:35;24.98;;;4.05;;
9783;SDS011;4931;44.874;-1.092;2023-01-09T14:05:03;26.50;;;4.30;;
9783;SDS011;4931;44.874;-1.092;2023-01-09T14:10:04;28.38;;;4.30;;
9783;SDS011;4931;44.874;-1.092;2023-01-09T14:12:37;31.67;;;3.55;;
9783;SDS011;4931;44.874;-1.092;2023-01-09T14:15:05;25.60;;;4.30;;
9783;SDS011;4931;44.874;-1.092;2023-01-09T14:17:47;36.25;;;4.90;;
9783;SDS011;4931;44.874;-1.092;2023-01-09T14:20:24;33.30;;;5.32;;
9783;SDS011;4931;44.874;-1.092;2023-01-09T14:25:22;33.85;;;4.20;;
9783;SDS011;4931;44.874;-1.092;2023-01-09T14:38:43;42.38;;;5.40;;
9783;SDS011;4931;44.874;-1.092;2023-01-09T14:41:22;29.35;;;4.88;;
9783;SDS011;4931;44.874;-1.092;2023-01-09T14:47:13;30.08;;;4.72;;
9783;SDS011;4931;44.874;-1.092;2023-01-09T14:49:57;34.03;;;4.88;;
9783;SDS011;4931;44.874;-1.092;2023-01-09T14:52:29;26.08;;;4.03;;
9783;SDS011;4931;44.874;-1.092;2023-01-09T14:55:00;34.35;;;4.60;;
9783;SDS011;4931;44.874;-1.092;2023-01-09T14:57:29;35.78;;;5.03;;
9783;SDS011;4931;44.874;-1.092;2023-01-09T14:59:57;31.65;;;4.47;;
9783;SDS011;4931;44.874;-1.092;2023-01-09T15:02:28;31.63;;;4.30;;
9783;SDS011;4931;44.874;-1.092;2023-01-09T15:04:58;33.38;;;5.13;;
9783;SDS011;4931;44.874;-1.092;2023-01-09T15:07:30;37.60;;;4.85;;
9783;SDS011;4931;44.874;-1.092;2023-01-09T15:10:04;40.03;;;5.40;;
9783;SDS011;4931;44.874;-1.092;2023-01-09T15:12:30;30.90;;;5.30;;
9783;SDS011;4931;44.874;-1.092;2023-01-09T15:14:57;39.97;;;5.40;;
9783;SDS011;4931;44.874;-1.092;2023-01-09T15:17:26;32.40;;;5.00;;
9783;SDS011;4931;44.874;-1.092;2023-01-09T15:19:55;39.00;;;5.18;;
9783;SDS011;4931;44.874;-1.092;2023-01-09T15:22:32;29.08;;;4.80;;
9783;SDS011;4931;44.874;-1.092;2023-01-09T15:27:52;39.67;;;5.18;;
9783;SDS011;4931;44.874;-1.092;2023-01-09T15:32:54;37.15;;;4.97;;
9783;SDS011;4931;44.874;-1.092;2023-01-09T15:35:20;34.30;;;5.32;;
9783;SDS011;4931;44.874;-1.092;2023-01-09T15:37:46;33.67;;;4.60;;
9783;SDS011;4931;44.874;-1.092;2023-01-09T15:40:16;85.38;;;31.17;;
9783;SDS011;4931;44.874;-1.092;2023-01-09T15:42:49;92.72;;;38.85;;
9783;SDS011;4931;44.874;-1.092;2023-01-09T15:51:16;52.70;;;11.25;;
9783;SDS011;4931;44.874;-1.092;2023-01-09T15:53:44;38.20;;;7.28;;
9783;SDS011;4931;44.874;-1.092;2023-01-09T15:58:42;32.05;;;5.55;;
9783;SDS011;4931;44.874;-1.092;2023-01-09T16:03:55;31.55;;;5.43;;
9783;SDS011;4931;44.874;-1.092;2023-01-09T16:06:27;32.15;;;5.25;;
9783;SDS011;4931;44.874;-1.092;2023-01-09T16:08:55;34.50;;;5.57;;
9783;SDS011;4931;44.874;-1.092;2023-01-09T16:16:52;39.60;;;5.05;;
9783;SDS011;4931;44.874;-1.092;2023-01-09T16:21:57;31.35;;;4.13;;
9783;SDS011;4931;44.874;-1.092;2023-01-09T16:27:29;40.47;;;4.03;;
9783;SDS011;4931;44.874;-1.092;2023-01-09T16:30:02;31.40;;;4.32;;
9783;SDS011;4931;44.874;-1.092;2023-01-09T16:32:31;32.45;;;4.05;;
9783;SDS011;4931;44.874;-1.092;2023-01-09T16:35:00;26.27;;;3.90;;
9783;SDS011;4931;44.874;-1.092;2023-01-09T16:37:29;35.20;;;4.53;;
9783;SDS011;4931;44.874;-1.092;2023-01-09T16:42:45;30.20;;;3.70;;
9783;SDS011;4931;44.874;-1.092;2023-01-09T16:45:34;35.92;;;10.27;;
9783;SDS011;4931;44.874;-1.092;2023-01-09T16:48:02;34.22;;;4.97;;
9783;SDS011;4931;44.874;-1.092;2023-01-09T16:50:37;31.88;;;4.78;;
9783;SDS011;4931;44.874;-1.092;2023-01-09T16:53:20;33.33;;;4.32;;
9783;SDS011;4931;44.874;-1.092;2023-01-09T16:55:48;28.20;;;4.18;;
9783;SDS011;4931;44.874;-1.092;2023-01-09T16:58:16;29.27;;;4.68;;
9783;SDS011;4931;44.874;-1.092;2023-01-09T17:00:45;37.90;;;5.15;;
9783;SDS011;4931;44.874;-1.092;2023-01-09T17:03:16;35.53;;;4.85;;
9783;SDS011;4931;44.874;-1.092;2023-01-09T17:05:42;37.33;;;4.95;;
9783;SDS011;4931;44.874;-1.092;2023-01-09T17:08:13;35.10;;;5.45;;
9783;SDS011;4931;44.874;-1.092;2023-01-09T17:10:43;37.63;;;4.95;;
9783;SDS011;4931;44.874;-1.092;2023-01-09T17:13:08;32.60;;;4.80;;
9783;SDS011;4931;44.874;-1.092;2023-01-09T17:15:34;28.25;;;4.38;;
9783;SDS011;4931;44.874;-1.092;2023-01-09T17:18:00;37.20;;;5.68;;
9783;SDS011;4931;44.874;-1.092;2023-01-09T17:20:25;38.05;;;4.95;;
9783;SDS011;4931;44.874;-1.092;2023-01-09T17:22:53;30.05;;;4.85;;
9783;SDS011;4931;44.874;-1.092;2023-01-09T17:25:19;35.90;;;4.88;;
9783;SDS011;4931;44.874;-1.092;2023-01-09T17:28:03;36.80;;;4.65;;
9783;SDS011;4931;44.874;-1.092;2023-01-09T17:30:48;38.45;;;5.25;;
9783;SDS011;4931;44.874;-1.092;2023-01-09T17:33:14;38.78;;;5.65;;
9783;SDS011;4931;44.874;-1.092;2023-01-09T17:35:41;41.50;;;5.35;;
9783;SDS011;4931;44.874;-1.092;2023-01-09T17:38:13;20.05;;;2.83;;
9783;SDS011;4931;44.874;-1.092;2023-01-09T17:40:40;26.58;;;3.97;;
9783;SDS011;4931;44.874;-1.092;2023-01-09T17:43:06;22.23;;;2.95;;
9783;SDS011;4931;44.874;-1.092;2023-01-09T17:45:32;20.67;;;3.28;;
9783;SDS011;4931;44.874;-1.092;2023-01-09T17:47:57;22.80;;;3.05;;
9783;SDS011;4931;44.874;-1.092;2023-01-09T17:50:23;19.42;;;3.15;;
9783;SDS011;4931;44.874;-1.092;2023-01-09T17:52:52;26.52;;;4.82;;
9783;SDS011;4931;44.874;-1.092;2023-01-09T17:55:18;29.70;;;3.67;;
9783;SDS011;4931;44.874;-1.092;2023-01-09T17:57:44;31.20;;;4.60;;
9783;SDS011;4931;44.874;-1.092;2023-01-09T18:00:32;35.70;;;4.45;;
9783;SDS011;4931;44.874;-1.092;2023-01-09T18:03:04;31.20;;;4.38;;
9783;SDS011;4931;44.874;-1.092;2023-01-09T18:05:31;26.92;;;3.78;;
9783;SDS011;4931;44.874;-1.092;2023-01-09T18:07:58;33.45;;;4.47;;
9783;SDS011;4931;44.874;-1.092;2023-01-09T18:10:24;33.90;;;4.40;;
9783;SDS011;4931;44.874;-1.092;2023-01-09T18:12:53;39.25;;;4.90;;
9783;SDS011;4931;44.874;-1.092;2023-01-09T18:15:21;41.47;;;5.65;;
9783;SDS011;4931;44.874;-1.092;2023-01-09T18:17:49;36.70;;;4.47;;
9783;SDS011;4931;44.874;-1.092;2023-01-09T18:20:17;32.58;;;4.35;;
9783;SDS011;4931;44.874;-1.092;2023-01-09T18:22:43;28.63;;;4.18;;